Time;durP1;ratioP1;P1;durP2;ratioP2;P2;SDS_P1;SDS_P2;PMS_P1;PMS_P2;Temp;Humidity;BMP_temperature;BMP_pressure;BME280_temperature;BME280_humidity;BME280_pressure;Samples;Min_cycle;Max_cycle;Signal;HPM_P1;HPM_P2
2022/08/01 00:07:49;;;;;;;4.93;2.55;;;;;;;17.41;79.63;97900.88;18488538;32;20090;-61
2022/08/01 00:17:52;;;;;;;2.15;1.83;;;;;;;17.35;80.26;97890.37;18501767;32;20416;-61
2022/08/01 00:27:54;;;;;;;2.70;1.90;;;;;;;17.28;80.60;97888.88;18487121;32;20049;-61
2022/08/01 00:37:56;;;;;;;2.95;2.10;;;;;;;17.18;81.02;97894.56;18500466;32;20045;-61
2022/08/01 00:47:59;;;;;;;3.15;2.33;;;;;;;17.08;81.68;97886.62;18500140;32;20112;-62
2022/08/01 00:58:01;;;;;;;4.68;2.90;;;;;;;16.97;82.40;97887.97;18499002;32;20100;-62
2022/08/01 01:08:19;;;;;;;2.12;1.70;;;;;;;16.88;83.24;97891.38;18499392;32;20098;-62
2022/08/01 01:18:37;;;;;;;1.92;1.60;;;;;;;16.80;83.31;97888.56;18483980;32;20488;-61
2022/08/01 01:29:20;;;;;;;2.20;1.50;;;;;;;16.71;83.69;97891.22;18497830;32;20056;-61
2022/08/01 01:39:25;;;;;;;1.87;1.62;;;;;;;16.56;83.97;97884.94;18496694;32;20083;-62
2022/08/01 01:49:29;;;;;;;2.62;1.90;;;;;;;16.47;84.50;97899.59;18496583;32;20067;-62
2022/08/01 01:59:35;;;;;;;2.85;1.77;;;;;;;16.31;84.81;97888.16;18495771;32;20056;-61
2022/08/01 02:09:41;;;;;;;2.37;1.90;;;;;;;16.15;85.73;97885.72;18481532;32;20088;-61
2022/08/01 02:19:45;;;;;;;2.97;2.30;;;;;;;16.01;86.71;97893.09;18495564;32;20048;-62
2022/08/01 02:29:52;;;;;;;3.20;2.00;;;;;;;15.89;87.01;97899.00;18481372;32;20473;-62
2022/08/01 02:39:55;;;;;;;2.35;1.85;;;;;;;15.79;87.28;97894.50;18494975;32;20046;-62
2022/08/01 02:49:59;;;;;;;3.00;1.77;;;;;;;15.69;88.00;97895.50;18495388;32;20048;-62
2022/08/01 03:00:02;;;;;;;;;;;;;;;15.58;88.43;97900.31;18507041;32;20075;-62
2022/08/01 03:10:05;;;;;;;2.87;1.37;;;;;;;15.45;88.87;97890.16;18492309;32;19978;-61
2022/08/01 03:20:10;;;;;;;2.17;1.20;;;;;;;15.39;89.35;97886.69;18505601;32;20105;-61
2022/08/01 03:30:13;;;;;;;2.40;1.60;;;;;;;15.31;89.55;97881.94;18504797;32;20065;-62
2022/08/01 03:40:28;;;;;;;3.10;2.07;;;;;;;15.21;90.11;97885.62;18503887;32;20493;-62
2022/08/01 03:50:33;;;;;;;;;;;;;;;15.11;90.52;97896.63;18504082;32;20111;-62
2022/08/01 04:00:39;;;;;;;1.80;1.30;;;;;;;15.02;90.31;97899.22;18503013;32;20031;-62
2022/08/01 04:10:41;;;;;;;2.57;1.83;;;;;;;14.95;90.86;97898.78;18502306;32;20071;-62
2022/08/01 04:20:46;;;;;;;2.93;1.97;;;;;;;14.88;91.07;97898.31;18501825;32;20037;-62
2022/08/01 04:30:51;;;;;;;2.77;1.63;;;;;;;14.80;91.11;97904.41;18501356;32;20053;-62
2022/08/01 04:40:56;;;;;;;2.33;1.57;;;;;;;14.80;91.69;97913.41;18500597;32;20463;-62
2022/08/01 04:50:58;;;;;;;;;;;;;;;14.90;91.82;97915.97;18500101;32;20042;-62
2022/08/01 05:01:01;;;;;;;3.47;2.10;;;;;;;15.05;91.56;97919.63;18499660;32;19963;-62
2022/08/01 05:11:03;;;;;;;3.95;2.80;;;;;;;15.27;90.75;97920.97;18498751;32;20045;-62
2022/08/01 05:21:06;;;;;;;2.25;1.60;;;;;;;15.53;90.02;97924.09;18498055;32;20063;-62
2022/08/01 05:31:08;;;;;;;1.90;1.62;;;;;;;15.88;89.70;97936.37;18496621;32;20056;-62
2022/08/01 05:41:10;;;;;;;2.15;1.55;;;;;;;16.24;89.10;97930.31;18496742;32;20049;-62
2022/08/01 05:51:13;;;;;;;1.75;1.40;;;;;;;16.64;87.77;97929.84;18496417;32;20182;-62
2022/08/01 06:01:15;;;;;;;1.85;1.20;;;;;;;17.09;86.26;97930.03;18495868;32;20060;-62
2022/08/01 06:11:18;;;;;;;1.37;1.00;;;;;;;17.53;83.72;97929.63;18496015;32;20068;-62
2022/08/01 06:21:20;;;;;;;1.60;1.30;;;;;;;18.06;81.48;97939.00;18495486;32;20053;-61
2022/08/01 06:31:22;;;;;;;2.12;1.55;;;;;;;18.64;78.54;97942.69;18504787;32;20045;-62
2022/08/01 06:41:24;;;;;;;1.95;1.05;;;;;;;19.20;75.43;97945.78;18507784;32;20069;-62
2022/08/01 06:51:27;;;;;;;1.12;1.00;;;;;;;19.82;73.43;97952.13;18507565;32;20379;-62
2022/08/01 07:01:30;;;;;;;3.40;1.67;;;;;;;20.44;72.07;97945.34;18506533;32;20045;-62
2022/08/01 07:11:36;;;;;;;2.03;1.70;;;;;;;20.97;69.40;97942.41;18504958;32;20045;-62
2022/08/01 07:21:39;;;;;;;2.25;1.92;;;;;;;21.47;68.23;97938.84;18505345;32;20116;-62
2022/08/01 07:31:42;;;;;;;2.55;2.20;;;;;;;21.99;65.08;97945.88;18491264;32;20087;-62
2022/08/01 07:41:45;;;;;;;2.40;2.10;;;;;;;22.54;62.33;97943.03;18503041;32;20057;-62
2022/08/01 07:52:08;;;;;;;2.75;1.95;;;;;;;23.21;61.36;97931.78;18503860;32;20069;-62
2022/08/01 08:02:11;;;;;;;3.83;2.37;;;;;;;23.85;57.54;97926.56;18488647;32;20049;-62
2022/08/01 08:12:13;;;;;;;3.90;1.90;;;;;;;24.38;55.57;97920.91;18475007;32;20059;-62
2022/08/01 08:22:16;;;;;;;2.78;2.05;;;;;;;24.82;52.43;97920.03;18501664;32;20098;-62
2022/08/01 08:32:18;;;;;;;3.28;2.17;;;;;;;25.27;51.47;97915.09;18500050;32;20113;-63
2022/08/01 08:42:26;;;;;;;;;;;;;;;25.73;50.63;97912.53;18500700;32;20115;-63
2022/08/01 08:52:30;;;;;;;2.53;1.95;;;;;;;26.18;49.81;97918.56;18499905;32;19985;-63
2022/08/01 09:02:44;;;;;;;1.80;1.62;;;;;;;26.51;47.07;97919.94;18484407;32;20049;-62
2022/08/01 09:13:12;;;;;;;2.78;1.67;;;;;;;26.75;48.81;97915.19;18498778;32;20417;-63
2022/08/01 09:23:39;;;;;;;2.47;2.17;;;;;;;27.08;47.24;97908.97;18498109;32;20052;-63
2022/08/01 09:33:58;;;;;;;2.12;1.80;;;;;;;27.61;48.38;97921.22;18483376;32;20048;-63
2022/08/01 09:44:01;;;;;;;2.20;1.92;;;;;;;27.88;45.81;97919.16;18496932;32;20463;-63
2022/08/01 09:54:06;;;;;;;2.25;1.33;;;;;;;28.15;45.59;97908.75;18496336;32;20041;-62
2022/08/01 10:04:17;;;;;;;3.15;1.62;;;;;;;28.24;43.43;97911.22;18442191;32;20045;-63
2022/08/01 10:14:22;;;;;;;1.95;1.58;;;;;;;28.34;42.87;97895.81;18430994;32;20069;-63
2022/08/01 10:24:28;;;;;;;3.40;1.80;;;;;;;28.72;42.10;97897.37;18431539;32;20049;-63
2022/08/01 10:34:34;;;;;;;2.30;1.55;;;;;;;29.04;41.62;97877.31;18442487;32;20358;-63
2022/08/01 10:44:38;;;;;;;1.90;1.70;;;;;;;29.40;42.31;97862.81;18429666;32;20159;-63
2022/08/01 10:54:43;;;;;;;2.00;1.50;;;;;;;29.80;41.33;97863.72;18430548;32;20071;-63
2022/08/01 11:05:21;;;;;;;2.15;1.73;;;;;;;30.01;38.66;97862.22;18494564;32;20057;-63
2022/08/01 11:15:25;;;;;;;1.80;1.37;;;;;;;30.11;40.39;97852.25;18486139;32;20059;-63
2022/08/01 11:25:37;;;;;;;2.25;1.52;;;;;;;30.44;37.24;97845.56;18491749;32;20049;-63
2022/08/01 11:36:20;;;;;;;2.12;1.70;;;;;;;30.50;38.66;97834.78;18504771;32;20422;-63
2022/08/01 11:46:50;;;;;;;2.33;1.90;;;;;;;31.02;38.47;97825.91;18503914;32;20147;-62
2022/08/01 11:56:57;;;;;;;1.87;1.33;;;;;;;31.31;38.26;97806.28;18475860;32;20100;-62
2022/08/01 12:07:13;;;;;;;1.20;1.10;;;;;;;31.51;36.18;97815.00;18503135;32;20395;-62
2022/08/01 12:17:17;;;;;;;1.73;1.20;;;;;;;31.86;37.52;97805.63;18502354;32;20044;-62
2022/08/01 12:27:26;;;;;;;1.83;1.02;;;;;;;32.05;32.67;97801.47;18501276;32;20067;-62
2022/08/01 12:37:29;;;;;;;2.22;1.40;;;;;;;32.35;34.48;97793.69;18500986;32;20101;-62
2022/08/01 12:47:32;;;;;;;1.75;1.42;;;;;;;32.55;34.31;97785.50;18500245;32;20421;-62
2022/08/01 12:57:41;;;;;;;1.58;1.42;;;;;;;32.91;31.23;97779.56;18499169;32;20071;-61
2022/08/01 13:07:49;;;;;;;1.83;1.40;;;;;;;33.33;31.08;97788.69;18485392;32;20094;-62
2022/08/01 13:17:54;;;;;;;2.20;1.50;;;;;;;33.46;30.42;97766.47;18485188;32;20425;-62
2022/08/01 13:28:20;;;;;;;2.17;1.33;;;;;;;33.25;29.96;97773.97;18498130;32;20052;-62
2022/08/01 13:39:40;;;;;;;2.00;1.50;;;;;;;33.60;30.35;97780.31;18482670;32;20125;-62
2022/08/01 13:48:49;;;;;;;3.55;1.50;;;;;;;33.83;32.31;97769.59;18496785;32;20044;-62
2022/08/01 13:58:51;;;;;;;1.62;1.30;;;;;;;34.56;31.87;97756.75;18495977;32;20090;-62
2022/08/01 14:08:55;;;;;;;2.60;1.60;;;;;;;35.05;29.13;97775.87;18496079;32;20116;-61
2022/08/01 14:18:57;;;;;;;1.80;1.42;;;;;;;34.84;26.83;97751.00;18469065;32;20040;-62
2022/08/01 14:29:01;;;;;;;2.08;1.67;;;;;;;34.27;30.91;97750.81;18495239;32;20049;-62
2022/08/01 14:39:05;;;;;;;1.70;1.55;;;;;;;34.32;29.42;97744.75;18480645;32;20077;-62
2022/08/01 14:49:16;;;;;;;3.25;1.80;;;;;;;34.24;28.64;97748.88;18500175;32;20057;-62
2022/08/01 14:59:19;;;;;;;2.25;1.90;;;;;;;33.52;34.15;97752.78;18492451;32;20037;-62
2022/08/01 15:09:23;;;;;;;1.67;1.58;;;;;;;32.67;31.66;97743.00;18506408;32;20372;-62
2022/08/01 15:19:25;;;;;;;2.00;1.85;;;;;;;31.57;36.01;97741.47;18506118;32;20090;-62
2022/08/01 15:29:28;;;;;;;1.83;1.48;;;;;;;31.70;36.41;97755.81;18503878;32;20044;-62
2022/08/01 15:39:32;;;;;;;3.72;1.77;;;;;;;31.68;35.51;97751.81;18504570;32;20087;-62
2022/08/01 15:49:36;;;;;;;1.85;1.67;;;;;;;31.00;38.44;97759.31;18504144;32;20041;-61
2022/08/01 15:59:39;;;;;;;1.65;1.55;;;;;;;30.82;36.27;97747.41;18500996;32;20053;-62
2022/08/01 16:09:43;;;;;;;1.50;1.40;;;;;;;30.15;37.01;97744.31;18503082;32;20376;-62
2022/08/01 16:19:50;;;;;;;1.65;1.35;;;;;;;29.53;38.85;97752.63;18500797;32;20057;-62
2022/08/01 16:29:53;;;;;;;1.62;1.45;;;;;;;29.18;36.93;97744.94;18501549;32;20060;-61
2022/08/01 16:39:57;;;;;;;2.72;1.77;;;;;;;28.76;39.15;97743.56;18486452;32;20037;-61
2022/08/01 16:50:00;;;;;;;1.92;1.58;;;;;;;28.41;43.39;97751.28;18500363;32;20057;-61
2022/08/01 17:00:05;;;;;;;2.78;1.48;;;;;;;28.04;45.70;97741.88;18485557;32;20041;-61
2022/08/01 17:10:13;;;;;;;1.95;1.65;;;;;;;27.68;45.46;97749.88;18499131;32;20061;-61
2022/08/01 17:20:16;;;;;;;1.60;1.40;;;;;;;27.19;47.02;97743.38;18498099;32;20067;-62
2022/08/01 17:30:20;;;;;;;1.60;1.37;;;;;;;26.84;47.89;97750.09;18483804;32;20041;-62
2022/08/01 17:40:23;;;;;;;1.70;1.42;;;;;;;26.63;48.67;97742.25;18497420;32;20438;-62
2022/08/01 17:50:43;;;;;;;2.00;1.55;;;;;;;26.36;49.36;97758.09;18497279;32;20089;-62
2022/08/01 18:00:47;;;;;;;2.47;1.87;;;;;;;26.06;49.47;97752.50;18496101;32;20045;-62
2022/08/01 18:10:50;;;;;;;3.33;2.15;;;;;;;25.83;50.12;97751.31;18468937;32;20128;-62
2022/08/01 18:20:53;;;;;;;6.57;2.70;;;;;;;25.66;48.09;97783.03;18497818;32;20064;-61
2022/08/01 18:30:58;;;;;;;6.20;2.92;;;;;;;25.83;50.81;97792.84;18517010;32;20342;-61
2022/08/01 18:41:02;;;;;;;3.72;1.92;;;;;;;25.65;52.58;97809.12;18516526;32;20392;-61
2022/08/01 18:51:06;;;;;;;1.77;1.20;;;;;;;25.23;54.55;97837.56;18502172;32;20084;-62
2022/08/01 19:01:13;;;;;;;2.75;1.42;;;;;;;24.59;56.43;97864.53;18502396;32;20033;-61
2022/08/01 19:11:15;;;;;;;1.62;1.33;;;;;;;24.22;57.69;97862.84;18514967;32;20095;-61
2022/08/01 19:21:18;;;;;;;1.67;1.58;;;;;;;23.88;59.47;97861.53;18501063;32;20097;-61
2022/08/01 19:31:26;;;;;;;1.80;1.30;;;;;;;23.45;61.35;97875.75;18487988;32;20082;-61
2022/08/01 19:41:31;;;;;;;1.52;1.27;;;;;;;23.07;63.97;97892.72;18504533;32;20069;-61
2022/08/01 19:51:48;;;;;;;1.92;1.33;;;;;;;22.71;66.83;97892.41;18504286;32;20080;-61
2022/08/01 20:01:55;;;;;;;5.75;1.90;;;;;;;22.38;68.97;97912.63;18503057;32;20045;-60
2022/08/01 20:11:58;;;;;;;1.52;1.20;;;;;;;21.98;70.82;97925.00;18502685;32;20100;-60
2022/08/01 20:22:06;;;;;;;4.53;1.40;;;;;;;21.78;71.90;97939.59;18502104;32;20441;-60
2022/08/01 20:32:08;;;;;;;1.40;1.20;;;;;;;21.53;73.09;97944.16;18487851;32;20049;-60
2022/08/01 20:42:13;;;;;;;2.03;1.27;;;;;;;21.33;73.13;97941.84;18500951;32;20057;-60
2022/08/01 20:52:16;;;;;;;1.50;1.20;;;;;;;21.23;72.87;97936.75;18485146;32;20061;-60
2022/08/01 21:03:00;;;;;;;1.60;1.25;;;;;;;21.20;73.59;97933.84;18498357;32;20096;-60
2022/08/01 21:13:06;;;;;;;4.20;1.40;;;;;;;21.15;73.06;97935.66;18499315;32;20075;-60
2022/08/01 21:23:21;;;;;;;1.42;0.90;;;;;;;20.98;73.27;97946.75;18498616;32;20060;-60
2022/08/01 21:33:25;;;;;;;1.65;1.30;;;;;;;20.81;74.66;97945.72;18497918;32;20086;-61
2022/08/01 21:43:31;;;;;;;3.37;1.85;;;;;;;20.68;75.48;97945.91;18497154;32;20054;-61
2022/08/01 21:54:03;;;;;;;6.43;2.05;;;;;;;20.44;75.47;97950.06;18496966;32;20082;-61
2022/08/01 22:04:16;;;;;;;2.92;1.40;;;;;;;20.20;75.40;97956.09;18495549;32;20482;-60
2022/08/01 22:14:20;;;;;;;2.40;1.40;;;;;;;19.92;77.72;97951.78;18496074;32;20104;-61
2022/08/01 22:24:23;;;;;;;2.35;1.73;;;;;;;19.71;79.48;97959.03;18495360;32;20049;-61
2022/08/01 22:34:26;;;;;;;1.85;1.62;;;;;;;19.44;79.87;97963.69;18481302;32;20353;-61
2022/08/01 22:44:41;;;;;;;2.50;1.45;;;;;;;19.18;81.35;97977.38;18480808;32;20053;-60
2022/08/01 22:54:59;;;;;;;3.00;1.85;;;;;;;18.93;82.43;97986.00;18480527;32;20089;-61
2022/08/01 23:05:07;;;;;;;2.00;1.50;;;;;;;18.74;82.87;97991.69;18494556;32;20119;-60
2022/08/01 23:15:10;;;;;;;2.45;1.65;;;;;;;18.57;83.77;97984.22;18505268;32;20044;-61
2022/08/01 23:25:14;;;;;;;2.87;1.40;;;;;;;18.33;84.21;97991.97;18505679;32;20079;-60
2022/08/01 23:35:16;;;;;;;4.25;1.60;;;;;;;18.17;86.01;97995.13;18490794;32;20438;-60
2022/08/01 23:45:20;;;;;;;1.98;1.40;;;;;;;18.03;86.39;98006.09;18504796;32;20061;-60
2022/08/01 23:55:23;;;;;;;1.35;1.23;;;;;;;17.88;87.18;97999.06;18502408;32;20049;-59
